Decoded Metar for KRUG ( in ) (IATA:) | Meteo·Mobile Aviation Weather
aviador You're here:

KRUG Decoded Metar

in
Report Time2018-08-21 11:55:00
UTC Time2018-08-21 12:10:50
Flight Rules vfr VFR
WindCalm
Visibility9999 m
Phenomena:N/A
Clouds:Few 080 Hf
CeilingNone
Temp07°C
Dew Point07°C (100% RH)
AAT6.3°C
QNH1023 hPa
Raw Report
METAR KRUG 211155Z AUTO 00000KT 9SM FEW080 07/07 A3021 RMK AO2=

Extra information for KRUG:More info

Social comments